createdAt,value
2022-12-07T00:00:14.576Z,76.97
2022-12-07T00:02:44.788Z,77.57
2022-12-07T00:05:14.957Z,77.61
2022-12-07T00:07:45.178Z,77.28
2022-12-07T00:10:15.477Z,77.40
2022-12-07T00:12:45.553Z,77.56
2022-12-07T00:15:15.806Z,77.31
2022-12-07T00:17:45.957Z,77.35
2022-12-07T00:20:16.410Z,77.15
2022-12-07T00:22:46.503Z,77.18
2022-12-07T00:25:16.765Z,77.54
2022-12-07T00:27:46.992Z,77.30
2022-12-07T00:30:17.221Z,77.14
2022-12-07T00:32:47.422Z,76.92
2022-12-07T00:35:17.642Z,77.50
2022-12-07T00:37:47.738Z,77.25
2022-12-07T00:40:17.882Z,77.70
2022-12-07T00:42:48.036Z,77.27
2022-12-07T00:45:18.784Z,77.78
2022-12-07T00:47:48.923Z,77.17
2022-12-07T00:50:19.046Z,77.05
2022-12-07T00:52:49.149Z,77.70
2022-12-07T00:55:19.274Z,77.24
2022-12-07T00:57:49.411Z,77.56
2022-12-07T01:00:19.638Z,77.37
2022-12-07T01:02:49.763Z,77.16
2022-12-07T01:05:20.282Z,77.64
2022-12-07T01:07:50.440Z,77.29
2022-12-07T01:10:20.641Z,77.54
2022-12-07T01:12:50.706Z,77.00
2022-12-07T01:15:20.865Z,76.88
2022-12-07T01:17:51.046Z,77.44
2022-12-07T01:20:21.306Z,77.26
2022-12-07T01:22:51.586Z,77.44
2022-12-07T01:25:21.758Z,77.07
2022-12-07T01:27:51.866Z,77.66
2022-12-07T01:30:22.073Z,77.58
2022-12-07T01:32:52.243Z,77.03
2022-12-07T01:35:22.445Z,77.50
2022-12-07T01:37:52.572Z,77.35
2022-12-07T01:40:22.641Z,77.36
2022-12-07T01:42:52.770Z,77.41
2022-12-07T01:45:40.697Z,77.34
2022-12-07T01:48:14.624Z,77.10
2022-12-07T01:50:46.640Z,77.43
2022-12-07T01:53:18.643Z,76.81
2022-12-07T01:55:53.252Z,76.99
2022-12-07T01:58:24.635Z,77.15
2022-12-07T02:00:54.794Z,77.03
2022-12-07T02:03:39.357Z,77.69
2022-12-07T02:06:13.208Z,76.88
2022-12-07T02:08:44.422Z,76.89
2022-12-07T02:11:15.109Z,76.88
2022-12-07T02:13:47.460Z,77.04
2022-12-07T02:16:38.354Z,76.98
2022-12-07T02:19:37.184Z,77.47
2022-12-07T02:22:41.081Z,77.18
2022-12-07T02:25:42.307Z,77.45
2022-12-07T02:28:24.164Z,76.98
2022-12-07T02:30:58.939Z,77.18
2022-12-07T02:33:44.713Z,77.16
2022-12-07T02:36:26.744Z,77.68
2022-12-07T02:39:03.150Z,77.77
2022-12-07T02:41:41.735Z,77.76
2022-12-07T02:44:16.052Z,77.63
2022-12-07T02:46:53.971Z,77.18
2022-12-07T02:49:25.788Z,77.32
2022-12-07T02:51:56.151Z,77.30
2022-12-07T02:54:26.340Z,77.57
2022-12-07T02:57:02.161Z,77.64
2022-12-07T03:00:13.467Z,77.49
2022-12-07T03:02:57.091Z,77.33
2022-12-07T03:05:54.348Z,77.38
2022-12-07T03:08:56.811Z,77.58
2022-12-07T03:11:34.661Z,77.27
2022-12-07T03:14:16.291Z,77.76
2022-12-07T03:17:07.126Z,77.54
2022-12-07T03:19:38.945Z,77.15
2022-12-07T03:22:12.540Z,77.61
2022-12-07T03:24:58.200Z,77.84
2022-12-07T03:27:34.944Z,77.13
2022-12-07T03:30:28.987Z,77.54
2022-12-07T03:33:19.502Z,77.98
2022-12-07T03:35:56.549Z,77.49
2022-12-07T03:38:36.909Z,77.37
2022-12-07T03:41:16.974Z,77.68
2022-12-07T03:43:47.362Z,77.77
2022-12-07T03:46:34.077Z,77.76
2022-12-07T03:49:13.745Z,77.91
2022-12-07T03:52:09.529Z,77.80
2022-12-07T03:54:50.772Z,77.63
2022-12-07T03:57:22.876Z,77.62
2022-12-07T03:59:55.212Z,77.70
2022-12-07T04:02:29.762Z,77.35
2022-12-07T04:05:00.095Z,77.73
2022-12-07T04:07:30.377Z,77.62
2022-12-07T04:10:01.464Z,77.57
2022-12-07T04:12:31.755Z,77.24
2022-12-07T04:15:01.939Z,76.95
2022-12-07T04:17:32.180Z,77.63
2022-12-07T04:20:02.747Z,77.50
2022-12-07T04:22:33.261Z,77.72
2022-12-07T04:25:03.660Z,77.55
2022-12-07T04:27:33.778Z,77.86
2022-12-07T04:30:04.764Z,77.74
2022-12-07T04:32:35.093Z,77.91
2022-12-07T04:35:05.619Z,77.49
2022-12-07T04:37:35.787Z,77.90
2022-12-07T04:40:08.569Z,78.21
2022-12-07T04:42:38.996Z,78.24
2022-12-07T04:45:09.926Z,77.76
2022-12-07T04:47:39.985Z,77.58
2022-12-07T04:50:11.061Z,77.93
2022-12-07T04:52:41.195Z,77.86
2022-12-07T04:55:11.363Z,78.05
2022-12-07T04:57:41.551Z,78.07
2022-12-07T05:00:12.200Z,78.44
2022-12-07T05:02:42.373Z,78.36
2022-12-07T05:05:12.572Z,78.64
2022-12-07T05:07:42.774Z,78.27
2022-12-07T05:10:12.937Z,78.33
2022-12-07T05:12:43.179Z,78.53
2022-12-07T05:15:14.257Z,78.46
2022-12-07T05:17:45.079Z,78.56
2022-12-07T05:20:15.200Z,79.07
2022-12-07T05:22:45.399Z,78.92
2022-12-07T05:25:15.563Z,80.14
2022-12-07T05:27:45.799Z,80.66
2022-12-07T05:30:16.066Z,80.53
2022-12-07T05:32:46.507Z,79.85
2022-12-07T05:35:17.036Z,81.02
2022-12-07T05:37:47.519Z,81.23
2022-12-07T05:40:18.276Z,81.27
2022-12-07T05:42:48.465Z,81.39
2022-12-07T05:45:18.645Z,82.10
2022-12-07T05:47:48.697Z,82.14
2022-12-07T05:50:18.934Z,82.83
2022-12-07T05:52:49.258Z,82.29
2022-12-07T05:55:19.428Z,82.85
2022-12-07T05:58:08.192Z,82.66
2022-12-07T06:00:38.286Z,82.28
2022-12-07T06:03:08.542Z,81.55
2022-12-07T06:05:38.713Z,82.15
2022-12-07T06:08:09.073Z,82.41
2022-12-07T06:10:39.278Z,82.43
2022-12-07T06:13:10.269Z,81.95
2022-12-07T06:15:40.505Z,81.86
2022-12-07T06:18:10.628Z,81.93
2022-12-07T06:20:40.847Z,81.51
2022-12-07T06:23:10.957Z,81.89
2022-12-07T06:25:41.112Z,81.49
2022-12-07T06:28:11.250Z,82.10
2022-12-07T06:30:41.324Z,81.71
2022-12-07T06:33:11.501Z,81.23
2022-12-07T06:35:41.589Z,81.82
2022-12-07T06:38:11.734Z,81.49
2022-12-07T06:40:41.816Z,81.72
2022-12-07T06:43:12.197Z,81.55
2022-12-07T06:45:43.118Z,81.86
2022-12-07T06:48:13.342Z,82.27
2022-12-07T06:50:54.344Z,81.95
2022-12-07T06:53:25.127Z,81.87
2022-12-07T06:55:55.514Z,82.17
2022-12-07T06:58:26.399Z,81.15
2022-12-07T07:00:56.653Z,81.50
2022-12-07T07:03:26.868Z,81.70
2022-12-07T07:05:56.943Z,81.52
2022-12-07T07:08:27.210Z,83.20
2022-12-07T07:10:57.469Z,84.74
2022-12-07T07:13:28.594Z,83.53
2022-12-07T07:15:58.998Z,83.08
2022-12-07T07:18:29.311Z,83.20
2022-12-07T07:20:59.485Z,81.79
2022-12-07T07:23:29.823Z,81.48
2022-12-07T07:26:00.015Z,81.82
2022-12-07T07:28:30.236Z,82.02
2022-12-07T07:31:00.502Z,82.01
2022-12-07T07:33:30.714Z,81.62
2022-12-07T07:36:00.954Z,81.75
2022-12-07T07:38:31.373Z,81.70
2022-12-07T07:41:01.501Z,81.29
2022-12-07T07:43:31.749Z,80.87
2022-12-07T07:46:01.991Z,80.86
2022-12-07T07:48:32.503Z,81.42
2022-12-07T07:51:06.869Z,81.08
2022-12-07T07:53:37.065Z,81.37
2022-12-07T07:56:07.261Z,80.98
2022-12-07T07:58:37.489Z,81.10
2022-12-07T08:01:08.764Z,81.40
2022-12-07T08:03:40.150Z,80.68
2022-12-07T08:06:10.313Z,80.74
2022-12-07T08:08:40.557Z,80.79
2022-12-07T08:11:11.041Z,80.33
2022-12-07T08:13:41.233Z,80.72
2022-12-07T08:16:12.824Z,80.18
2022-12-07T08:18:44.000Z,80.63
2022-12-07T08:21:17.752Z,80.48
2022-12-07T08:23:47.869Z,80.47
2022-12-07T08:26:18.352Z,79.84
2022-12-07T08:28:48.722Z,79.63
2022-12-07T08:31:20.205Z,80.40
2022-12-07T08:33:50.579Z,79.82
2022-12-07T08:36:21.129Z,79.84
2022-12-07T08:39:29.388Z,79.73
2022-12-07T08:41:41.715Z,79.45
2022-12-07T08:44:11.821Z,79.37
2022-12-07T08:46:52.117Z,79.01
2022-12-07T08:49:28.652Z,79.49
2022-12-07T08:52:03.073Z,78.67
2022-12-07T08:54:36.915Z,78.80
2022-12-07T08:57:08.512Z,78.29
2022-12-07T08:59:38.906Z,78.66
2022-12-07T09:02:09.097Z,78.40
2022-12-07T09:04:39.297Z,78.14
2022-12-07T09:07:11.168Z,78.48
2022-12-07T09:09:41.749Z,78.75
2022-12-07T09:12:11.871Z,78.38
2022-12-07T09:14:42.022Z,78.67
2022-12-07T09:17:14.023Z,78.90
2022-12-07T09:19:44.346Z,78.70
2022-12-07T09:22:14.455Z,78.62
2022-12-07T09:24:46.618Z,78.33
2022-12-07T09:27:19.822Z,78.58
2022-12-07T09:29:51.233Z,78.11
2022-12-07T09:32:21.682Z,78.27
2022-12-07T09:34:52.050Z,78.21
2022-12-07T09:37:22.585Z,78.34
2022-12-07T09:39:53.214Z,78.43
2022-12-07T09:42:38.518Z,78.13
2022-12-07T09:45:17.930Z,78.55
2022-12-07T09:47:48.405Z,78.07
2022-12-07T09:50:23.162Z,78.23
2022-12-07T09:52:54.710Z,77.94
2022-12-07T09:55:29.336Z,77.66
2022-12-07T09:58:00.022Z,78.29
2022-12-07T10:00:31.090Z,78.09
2022-12-07T10:03:03.609Z,77.68
2022-12-07T10:05:47.284Z,77.88
2022-12-07T10:08:18.476Z,78.21
2022-12-07T10:10:53.590Z,77.35
2022-12-07T10:13:43.440Z,77.37
2022-12-07T10:16:26.050Z,76.96
2022-12-07T10:18:56.624Z,77.07
2022-12-07T10:21:30.323Z,76.66
2022-12-07T10:24:02.532Z,77.04
2022-12-07T10:26:41.582Z,76.40
2022-12-07T10:29:25.654Z,76.40
2022-12-07T10:32:02.087Z,76.37
2022-12-07T10:34:39.531Z,76.13
2022-12-07T10:37:17.707Z,75.64
2022-12-07T10:39:50.579Z,75.90
2022-12-07T10:42:27.115Z,75.88
2022-12-07T10:45:16.499Z,75.22
2022-12-07T10:48:10.683Z,75.29
2022-12-07T10:50:40.766Z,75.39
2022-12-07T10:53:16.685Z,75.50
2022-12-07T10:56:09.428Z,75.18
2022-12-07T10:58:51.311Z,75.00
2022-12-07T11:01:27.228Z,74.87
2022-12-07T11:04:15.820Z,74.24
2022-12-07T11:07:09.002Z,74.08
2022-12-07T11:12:48.573Z,74.74
2022-12-07T11:15:41.469Z,74.09
2022-12-07T11:18:14.208Z,74.70
2022-12-07T11:20:48.014Z,74.22
2022-12-07T14:01:15.458Z,79.34
2022-12-07T14:03:45.794Z,78.23
2022-12-07T14:06:20.821Z,77.34
2022-12-07T14:08:55.836Z,77.69
2022-12-07T14:11:30.688Z,77.16
2022-12-07T14:14:03.390Z,76.76
2022-12-07T14:16:38.518Z,77.06
2022-12-07T14:19:48.994Z,76.17
2022-12-07T14:22:26.298Z,76.81
2022-12-07T14:25:18.646Z,76.99
2022-12-07T14:27:57.339Z,76.85
2022-12-07T14:30:30.636Z,76.57
2022-12-07T14:33:05.429Z,76.82
2022-12-07T14:35:35.760Z,76.74
2022-12-07T14:38:05.918Z,76.43
2022-12-07T14:40:36.125Z,76.58
2022-12-07T14:43:15.779Z,75.91
2022-12-07T14:45:46.029Z,76.82
2022-12-07T14:54:01.733Z,76.03
2022-12-07T14:56:31.898Z,76.15
2022-12-07T14:59:04.560Z,75.99
2022-12-07T15:01:34.950Z,76.50
2022-12-07T15:04:05.554Z,76.00
2022-12-07T15:06:36.012Z,75.66
2022-12-07T15:09:07.377Z,75.54
2022-12-07T15:11:43.062Z,76.25
2022-12-07T15:14:14.943Z,76.32
2022-12-07T15:17:07.939Z,75.57
2022-12-07T15:19:36.497Z,75.51
2022-12-07T15:22:07.431Z,75.64
2022-12-07T15:24:39.194Z,75.72
2022-12-07T15:27:09.502Z,75.73
2022-12-07T15:29:42.266Z,75.69
2022-12-07T15:32:12.490Z,75.64
2022-12-07T15:34:42.687Z,75.61
2022-12-07T15:37:12.914Z,75.67
2022-12-07T15:39:43.330Z,75.63
2022-12-07T15:42:13.589Z,75.74
2022-12-07T15:45:02.505Z,75.44
2022-12-07T15:50:36.223Z,75.69
2022-12-07T15:53:06.351Z,75.32
2022-12-07T15:55:46.236Z,75.34
2022-12-07T15:58:16.674Z,75.02
2022-12-07T16:00:48.698Z,75.29
2022-12-07T16:03:19.310Z,75.34
2022-12-07T16:05:54.547Z,75.05
2022-12-07T16:08:25.247Z,74.95
2022-12-07T16:10:55.802Z,75.39
2022-12-07T16:13:26.110Z,75.47
2022-12-07T16:15:56.595Z,75.14
2022-12-07T16:18:26.760Z,74.88
2022-12-07T16:20:58.918Z,75.58
2022-12-07T16:23:29.727Z,75.18
2022-12-07T16:26:09.480Z,75.40
2022-12-07T16:28:40.061Z,75.42
2022-12-07T16:31:16.268Z,75.12
2022-12-07T16:33:47.657Z,74.49
2022-12-07T16:36:39.961Z,75.17
2022-12-07T16:39:09.999Z,74.92
2022-12-07T16:41:40.312Z,74.80
2022-12-07T16:44:15.024Z,74.57
2022-12-07T16:46:45.703Z,74.68
2022-12-07T16:49:17.421Z,74.48
2022-12-07T16:52:08.529Z,74.64
2022-12-07T16:54:41.256Z,74.88
2022-12-07T16:57:14.330Z,74.85
2022-12-07T16:59:51.397Z,74.47
2022-12-07T17:02:21.926Z,74.57
2022-12-07T17:04:52.611Z,74.77
2022-12-07T17:07:36.710Z,74.83
2022-12-07T17:10:07.831Z,74.75
2022-12-07T17:12:37.991Z,75.10
2022-12-07T17:15:23.444Z,75.17
2022-12-07T17:17:57.380Z,75.00
2022-12-07T17:20:28.691Z,74.70
2022-12-07T17:22:58.916Z,74.63
2022-12-07T17:25:29.065Z,74.15
2022-12-07T17:28:00.165Z,74.22
2022-12-07T17:30:32.180Z,74.07
2022-12-07T17:33:02.898Z,74.52
2022-12-07T17:35:33.052Z,74.07
2022-12-07T17:38:03.235Z,74.31
2022-12-07T17:40:33.363Z,74.33
2022-12-07T17:43:03.604Z,74.52
2022-12-07T17:45:33.787Z,74.35
2022-12-07T17:48:05.539Z,73.83
2022-12-07T17:50:54.121Z,73.68
2022-12-07T17:53:24.348Z,73.57
2022-12-07T17:56:26.839Z,73.39
2022-12-07T17:58:45.326Z,73.42
2022-12-07T18:01:18.311Z,73.13
2022-12-07T18:03:50.709Z,73.43
2022-12-07T18:06:20.916Z,72.70
2022-12-07T18:08:51.200Z,73.64
2022-12-07T18:11:21.393Z,73.59
2022-12-07T18:13:51.521Z,73.23
2022-12-07T18:16:24.596Z,73.51
2022-12-07T18:18:55.291Z,73.08
2022-12-07T18:21:27.169Z,73.20
2022-12-07T18:24:02.473Z,72.73
2022-12-07T18:26:37.686Z,73.36
2022-12-07T18:29:08.907Z,73.18
2022-12-07T18:31:39.271Z,72.96
2022-12-07T18:34:13.095Z,73.31
2022-12-07T18:36:46.449Z,73.01
2022-12-07T18:39:18.171Z,73.22
2022-12-07T18:41:48.814Z,73.96
2022-12-07T18:44:19.038Z,73.32
2022-12-07T18:46:49.263Z,73.50
2022-12-07T18:49:19.452Z,73.46
2022-12-07T18:51:49.635Z,72.88
2022-12-07T18:54:19.857Z,73.43
2022-12-07T18:56:50.479Z,73.05
2022-12-07T18:59:39.036Z,73.51
2022-12-07T19:02:10.480Z,73.11
2022-12-07T19:04:43.097Z,73.16
2022-12-07T19:07:13.531Z,73.24
2022-12-07T19:09:43.738Z,73.19
2022-12-07T19:12:14.613Z,73.17
2022-12-07T19:14:45.192Z,73.40
2022-12-07T19:17:15.506Z,73.09
2022-12-07T19:19:47.267Z,73.13
2022-12-07T19:22:22.338Z,73.89
2022-12-07T19:24:54.293Z,73.44
2022-12-07T19:27:25.012Z,73.16
2022-12-07T19:29:55.087Z,73.00
2022-12-07T19:32:28.214Z,72.65
2022-12-07T19:34:58.571Z,73.54
2022-12-07T19:37:28.925Z,73.78
2022-12-07T19:39:59.142Z,72.92
2022-12-07T19:42:35.355Z,73.31
2022-12-07T19:45:06.239Z,73.43
2022-12-07T19:47:36.709Z,73.45
2022-12-07T19:50:07.501Z,73.18
2022-12-07T19:52:37.646Z,73.04
2022-12-07T19:55:08.240Z,73.21
2022-12-07T19:57:38.430Z,73.18
2022-12-07T20:00:09.257Z,73.30
2022-12-07T20:02:39.417Z,73.01
2022-12-07T20:05:10.315Z,72.97
2022-12-07T20:07:41.731Z,72.96
2022-12-07T20:10:11.996Z,73.32
2022-12-07T20:13:00.434Z,73.23
2022-12-07T20:15:30.576Z,73.04
2022-12-07T20:18:00.668Z,73.62
2022-12-07T20:20:30.833Z,73.29
2022-12-07T20:23:00.994Z,73.19
2022-12-07T20:25:31.165Z,72.95
2022-12-07T20:28:01.335Z,73.49
2022-12-07T20:30:31.494Z,73.16
2022-12-07T20:33:01.804Z,73.53
2022-12-07T20:35:31.943Z,73.50
2022-12-07T20:38:02.098Z,73.24
2022-12-07T20:40:32.264Z,73.55
2022-12-07T20:43:02.893Z,73.20
2022-12-07T20:45:33.450Z,74.02
2022-12-07T20:48:09.859Z,73.82
2022-12-07T20:50:42.367Z,73.60
2022-12-07T20:53:12.864Z,73.33
2022-12-07T20:55:43.778Z,73.82
2022-12-07T20:58:14.071Z,74.08
2022-12-07T21:00:44.304Z,73.59
2022-12-07T21:03:14.426Z,73.86
2022-12-07T21:05:50.411Z,73.30
2022-12-07T21:08:21.059Z,74.34
2022-12-07T21:10:51.304Z,73.83
2022-12-07T21:13:21.504Z,74.17
2022-12-07T21:15:52.204Z,73.99
2022-12-07T21:18:22.394Z,74.18
2022-12-07T21:20:52.560Z,73.88
2022-12-07T21:23:22.709Z,74.10
2022-12-07T21:25:52.961Z,73.92
2022-12-07T21:28:23.080Z,73.94
2022-12-07T21:31:12.915Z,74.22
2022-12-07T21:33:44.626Z,73.90
2022-12-07T21:36:17.831Z,73.49
2022-12-07T21:38:48.892Z,73.65
2022-12-07T21:41:23.443Z,73.95
2022-12-07T21:43:54.358Z,73.64
2022-12-07T21:46:33.345Z,73.95
2022-12-07T21:49:08.756Z,73.77
2022-12-07T21:51:40.979Z,73.03
2022-12-07T21:54:12.085Z,73.19
2022-12-07T21:56:43.399Z,73.29
2022-12-07T21:59:16.099Z,73.24
2022-12-07T22:01:48.568Z,73.64
2022-12-07T22:04:24.973Z,73.90
2022-12-07T22:06:57.398Z,72.84
2022-12-07T22:09:30.148Z,73.14
2022-12-07T22:12:00.334Z,73.62
2022-12-07T22:14:49.326Z,73.59
2022-12-07T22:17:19.384Z,73.45
2022-12-07T22:19:49.511Z,72.97
2022-12-07T22:22:19.655Z,73.64
2022-12-07T22:24:50.552Z,73.00
2022-12-07T22:27:24.345Z,72.59
2022-12-07T22:29:54.620Z,72.63
2022-12-07T22:32:47.747Z,73.02
2022-12-07T22:35:14.893Z,73.35
2022-12-07T22:37:45.054Z,73.12
2022-12-07T22:40:16.008Z,73.08
2022-12-07T22:42:46.126Z,72.80
2022-12-07T22:45:18.227Z,72.96
2022-12-07T22:47:48.398Z,73.19
2022-12-07T22:50:18.465Z,73.41
2022-12-07T22:52:48.616Z,72.99
2022-12-07T22:59:14.912Z,72.96
2022-12-07T23:01:44.994Z,73.00
2022-12-07T23:04:15.285Z,73.92
2022-12-07T23:06:45.458Z,73.11
2022-12-07T23:09:15.741Z,73.51
2022-12-07T23:12:04.558Z,73.46
2022-12-07T23:14:36.687Z,72.97
2022-12-07T23:17:23.926Z,72.91
2022-12-07T23:19:56.294Z,73.59
2022-12-07T23:22:26.476Z,72.87
2022-12-07T23:24:56.796Z,73.22
2022-12-07T23:27:26.953Z,73.57
2022-12-07T23:29:57.063Z,73.15
2022-12-07T23:32:27.197Z,73.55
2022-12-07T23:34:57.339Z,73.18
2022-12-07T23:37:27.557Z,73.75
2022-12-07T23:39:57.682Z,73.75
2022-12-07T23:42:27.857Z,73.38
2022-12-07T23:44:58.041Z,73.91
2022-12-07T23:47:43.331Z,73.64
2022-12-07T23:50:13.542Z,73.22
2022-12-07T23:52:43.763Z,73.48
2022-12-07T23:55:14.052Z,73.75
2022-12-07T23:57:44.179Z,73.29
